sensor_id;sensor_type;location;lat;lon;timestamp;temperature;humidity
46378;DHT22;32083;47.360;9.650;2023-01-09T00:19:20;5.70;99.90
46378;DHT22;32083;47.360;9.650;2023-01-09T00:22:19;5.60;99.90
46378;DHT22;32083;47.360;9.650;2023-01-09T00:27:53;5.60;99.90
46378;DHT22;32083;47.360;9.650;2023-01-09T00:36:13;5.50;99.90
46378;DHT22;32083;47.360;9.650;2023-01-09T00:39:19;5.60;99.90
46378;DHT22;32083;47.360;9.650;2023-01-09T00:46:11;5.60;99.90
46378;DHT22;32083;47.360;9.650;2023-01-09T00:55:18;5.70;99.90
46378;DHT22;32083;47.360;9.650;2023-01-09T01:00:40;5.60;99.90
46378;DHT22;32083;47.360;9.650;2023-01-09T01:03:26;5.70;99.90
46378;DHT22;32083;47.360;9.650;2023-01-09T01:09:03;5.80;99.90
46378;DHT22;32083;47.360;9.650;2023-01-09T01:17:27;5.80;99.90
46378;DHT22;32083;47.360;9.650;2023-01-09T01:19:56;5.90;99.90
46378;DHT22;32083;47.360;9.650;2023-01-09T01:23:02;5.90;99.90
46378;DHT22;32083;47.360;9.650;2023-01-09T01:26:07;5.90;99.90
46378;DHT22;32083;47.360;9.650;2023-01-09T01:29:21;5.90;99.90
46378;DHT22;32083;47.360;9.650;2023-01-09T01:32:07;5.90;99.90
46378;DHT22;32083;47.360;9.650;2023-01-09T01:34:48;5.90;99.90
46378;DHT22;32083;47.360;9.650;2023-01-09T01:38:27;5.90;99.90
46378;DHT22;32083;47.360;9.650;2023-01-09T01:41:56;5.90;99.90
46378;DHT22;32083;47.360;9.650;2023-01-09T01:45:38;5.70;99.90
46378;DHT22;32083;47.360;9.650;2023-01-09T01:51:55;5.80;99.90
46378;DHT22;32083;47.360;9.650;2023-01-09T01:55:09;5.70;99.90
46378;DHT22;32083;47.360;9.650;2023-01-09T01:58:13;5.70;99.90
46378;DHT22;32083;47.360;9.650;2023-01-09T02:01:21;5.70;99.90
46378;DHT22;32083;47.360;9.650;2023-01-09T02:04:32;5.70;99.90
46378;DHT22;32083;47.360;9.650;2023-01-09T02:12:45;5.80;99.90
46378;DHT22;32083;47.360;9.650;2023-01-09T02:18:43;5.80;99.90
46378;DHT22;32083;47.360;9.650;2023-01-09T02:22:15;5.70;99.90
46378;DHT22;32083;47.360;9.650;2023-01-09T02:30:34;5.60;99.90
46378;DHT22;32083;47.360;9.650;2023-01-09T02:49:25;5.70;99.90
46378;DHT22;32083;47.360;9.650;2023-01-09T03:12:02;5.70;99.90
46378;DHT22;32083;47.360;9.650;2023-01-09T03:15:27;5.70;99.90
46378;DHT22;32083;47.360;9.650;2023-01-09T03:21:25;5.70;99.90
46378;DHT22;32083;47.360;9.650;2023-01-09T03:24:22;5.80;99.90
46378;DHT22;32083;47.360;9.650;2023-01-09T03:27:30;5.80;99.90
46378;DHT22;32083;47.360;9.650;2023-01-09T03:30:24;5.80;99.90
46378;DHT22;32083;47.360;9.650;2023-01-09T03:33:08;5.90;99.90
46378;DHT22;32083;47.360;9.650;2023-01-09T03:38:40;6.00;99.90
46378;DHT22;32083;47.360;9.650;2023-01-09T03:47:59;6.10;99.90
46378;DHT22;32083;47.360;9.650;2023-01-09T03:54:22;6.20;99.90
46378;DHT22;32083;47.360;9.650;2023-01-09T03:59:50;6.40;99.90
46378;DHT22;32083;47.360;9.650;2023-01-09T04:54:52;6.60;99.90
46378;DHT22;32083;47.360;9.650;2023-01-09T04:58:05;6.70;99.90
46378;DHT22;32083;47.360;9.650;2023-01-09T05:01:33;6.70;99.90
46378;DHT22;32083;47.360;9.650;2023-01-09T05:04:28;6.60;99.90
46378;DHT22;32083;47.360;9.650;2023-01-09T05:06:54;6.60;99.90
46378;DHT22;32083;47.360;9.650;2023-01-09T05:09:20;6.60;99.90
46378;DHT22;32083;47.360;9.650;2023-01-09T05:11:47;6.70;99.90
46378;DHT22;32083;47.360;9.650;2023-01-09T05:14:14;6.70;99.90
46378;DHT22;32083;47.360;9.650;2023-01-09T05:16:40;6.60;99.90
46378;DHT22;32083;47.360;9.650;2023-01-09T05:19:05;6.60;99.90
46378;DHT22;32083;47.360;9.650;2023-01-09T05:21:31;6.50;99.90
46378;DHT22;32083;47.360;9.650;2023-01-09T05:23:57;6.60;99.90
46378;DHT22;32083;47.360;9.650;2023-01-09T05:26:23;6.50;99.90
46378;DHT22;32083;47.360;9.650;2023-01-09T05:28:50;6.50;99.90
46378;DHT22;32083;47.360;9.650;2023-01-09T05:31:17;6.50;99.90
46378;DHT22;32083;47.360;9.650;2023-01-09T05:33:43;6.50;99.90
46378;DHT22;32083;47.360;9.650;2023-01-09T05:36:09;6.50;99.90
46378;DHT22;32083;47.360;9.650;2023-01-09T05:38:36;6.40;99.90
46378;DHT22;32083;47.360;9.650;2023-01-09T05:41:02;6.40;99.90
46378;DHT22;32083;47.360;9.650;2023-01-09T05:43:28;6.30;99.90
46378;DHT22;32083;47.360;9.650;2023-01-09T05:45:54;6.30;99.90
46378;DHT22;32083;47.360;9.650;2023-01-09T05:48:20;6.30;99.90
46378;DHT22;32083;47.360;9.650;2023-01-09T05:50:46;6.40;99.90
46378;DHT22;32083;47.360;9.650;2023-01-09T05:53:12;6.50;99.90
46378;DHT22;32083;47.360;9.650;2023-01-09T05:55:38;6.50;99.90
46378;DHT22;32083;47.360;9.650;2023-01-09T05:58:03;6.50;99.90
46378;DHT22;32083;47.360;9.650;2023-01-09T06:00:29;6.50;99.90
46378;DHT22;32083;47.360;9.650;2023-01-09T06:02:56;6.50;99.90
46378;DHT22;32083;47.360;9.650;2023-01-09T06:05:22;6.50;99.90
46378;DHT22;32083;47.360;9.650;2023-01-09T06:07:48;6.50;99.90
46378;DHT22;32083;47.360;9.650;2023-01-09T06:10:14;6.40;99.90
46378;DHT22;32083;47.360;9.650;2023-01-09T06:12:42;6.40;99.90
46378;DHT22;32083;47.360;9.650;2023-01-09T06:15:11;6.40;99.90
46378;DHT22;32083;47.360;9.650;2023-01-09T06:17:37;6.40;99.90
46378;DHT22;32083;47.360;9.650;2023-01-09T06:20:03;6.30;99.90
46378;DHT22;32083;47.360;9.650;2023-01-09T06:22:29;6.30;99.90
46378;DHT22;32083;47.360;9.650;2023-01-09T06:24:55;6.20;99.90
46378;DHT22;32083;47.360;9.650;2023-01-09T06:27:21;6.20;99.90
46378;DHT22;32083;47.360;9.650;2023-01-09T06:29:47;6.20;99.90
46378;DHT22;32083;47.360;9.650;2023-01-09T06:32:12;6.10;99.90
46378;DHT22;32083;47.360;9.650;2023-01-09T06:34:38;6.10;99.90
46378;DHT22;32083;47.360;9.650;2023-01-09T06:37:04;6.10;99.90
46378;DHT22;32083;47.360;9.650;2023-01-09T06:39:30;6.10;99.90
46378;DHT22;32083;47.360;9.650;2023-01-09T06:41:56;6.10;99.90
46378;DHT22;32083;47.360;9.650;2023-01-09T06:44:22;6.10;99.90
46378;DHT22;32083;47.360;9.650;2023-01-09T06:46:48;6.00;99.90
46378;DHT22;32083;47.360;9.650;2023-01-09T06:49:14;5.90;99.90
46378;DHT22;32083;47.360;9.650;2023-01-09T06:51:42;5.90;99.90
46378;DHT22;32083;47.360;9.650;2023-01-09T06:54:08;5.70;99.90
46378;DHT22;32083;47.360;9.650;2023-01-09T06:56:34;5.60;99.90
46378;DHT22;32083;47.360;9.650;2023-01-09T06:59:00;5.90;99.90
46378;DHT22;32083;47.360;9.650;2023-01-09T07:01:26;6.00;99.90
46378;DHT22;32083;47.360;9.650;2023-01-09T07:03:52;6.20;99.90
46378;DHT22;32083;47.360;9.650;2023-01-09T07:06:18;6.20;99.90
46378;DHT22;32083;47.360;9.650;2023-01-09T07:08:44;6.30;99.90
46378;DHT22;32083;47.360;9.650;2023-01-09T07:11:10;6.30;99.90
46378;DHT22;32083;47.360;9.650;2023-01-09T07:13:36;6.30;99.90
46378;DHT22;32083;47.360;9.650;2023-01-09T07:16:03;6.30;99.90
46378;DHT22;32083;47.360;9.650;2023-01-09T07:18:30;6.40;99.90
46378;DHT22;32083;47.360;9.650;2023-01-09T07:20:56;6.40;99.90
46378;DHT22;32083;47.360;9.650;2023-01-09T07:23:22;6.40;99.90
46378;DHT22;32083;47.360;9.650;2023-01-09T07:25:49;6.30;99.90
46378;DHT22;32083;47.360;9.650;2023-01-09T07:28:15;6.30;99.90
46378;DHT22;32083;47.360;9.650;2023-01-09T07:30:41;6.30;99.90
46378;DHT22;32083;47.360;9.650;2023-01-09T07:33:07;6.30;99.90
46378;DHT22;32083;47.360;9.650;2023-01-09T07:35:33;6.30;99.90
46378;DHT22;32083;47.360;9.650;2023-01-09T07:37:59;6.30;99.90
46378;DHT22;32083;47.360;9.650;2023-01-09T07:40:25;6.30;99.90
46378;DHT22;32083;47.360;9.650;2023-01-09T07:42:54;6.30;99.90
46378;DHT22;32083;47.360;9.650;2023-01-09T07:45:20;6.30;99.90
46378;DHT22;32083;47.360;9.650;2023-01-09T07:47:46;6.30;99.90
46378;DHT22;32083;47.360;9.650;2023-01-09T07:50:12;6.30;99.90
46378;DHT22;32083;47.360;9.650;2023-01-09T07:52:38;6.30;99.90
46378;DHT22;32083;47.360;9.650;2023-01-09T07:55:05;6.20;99.90
46378;DHT22;32083;47.360;9.650;2023-01-09T07:57:31;6.20;99.90
46378;DHT22;32083;47.360;9.650;2023-01-09T07:59:57;6.20;99.90
46378;DHT22;32083;47.360;9.650;2023-01-09T08:02:25;6.20;99.90
46378;DHT22;32083;47.360;9.650;2023-01-09T08:04:52;6.30;99.90
46378;DHT22;32083;47.360;9.650;2023-01-09T08:07:18;6.30;99.90
46378;DHT22;32083;47.360;9.650;2023-01-09T08:09:44;6.30;99.90
46378;DHT22;32083;47.360;9.650;2023-01-09T08:12:10;6.40;99.90
46378;DHT22;32083;47.360;9.650;2023-01-09T08:14:36;6.40;99.90
46378;DHT22;32083;47.360;9.650;2023-01-09T08:17:01;6.40;99.90
46378;DHT22;32083;47.360;9.650;2023-01-09T08:19:27;6.40;99.90
46378;DHT22;32083;47.360;9.650;2023-01-09T08:21:53;6.40;99.90
46378;DHT22;32083;47.360;9.650;2023-01-09T08:24:19;6.40;99.90
46378;DHT22;32083;47.360;9.650;2023-01-09T08:26:45;6.40;99.90
46378;DHT22;32083;47.360;9.650;2023-01-09T08:29:11;6.50;99.90
46378;DHT22;32083;47.360;9.650;2023-01-09T08:31:37;6.50;99.90
46378;DHT22;32083;47.360;9.650;2023-01-09T08:34:03;6.50;99.90
46378;DHT22;32083;47.360;9.650;2023-01-09T08:36:29;6.50;99.90
46378;DHT22;32083;47.360;9.650;2023-01-09T08:38:55;6.60;99.90
46378;DHT22;32083;47.360;9.650;2023-01-09T08:41:21;6.50;99.90
46378;DHT22;32083;47.360;9.650;2023-01-09T08:44:05;6.60;99.90
46378;DHT22;32083;47.360;9.650;2023-01-09T08:46:50;6.60;99.90
46378;DHT22;32083;47.360;9.650;2023-01-09T08:49:32;6.70;99.90
46378;DHT22;32083;47.360;9.650;2023-01-09T08:51:59;6.70;99.90
46378;DHT22;32083;47.360;9.650;2023-01-09T08:54:25;6.80;99.90
46378;DHT22;32083;47.360;9.650;2023-01-09T08:56:51;6.80;99.30
46378;DHT22;32083;47.360;9.650;2023-01-09T08:59:17;6.90;98.90
46378;DHT22;32083;47.360;9.650;2023-01-09T09:01:43;6.90;99.50
46378;DHT22;32083;47.360;9.650;2023-01-09T09:04:09;6.90;99.90
46378;DHT22;32083;47.360;9.650;2023-01-09T09:06:35;6.90;99.90
46378;DHT22;32083;47.360;9.650;2023-01-09T09:09:01;6.90;99.40
46378;DHT22;32083;47.360;9.650;2023-01-09T09:11:34;6.90;99.90
46378;DHT22;32083;47.360;9.650;2023-01-09T09:14:01;6.90;99.90
46378;DHT22;32083;47.360;9.650;2023-01-09T09:16:47;7.00;99.90
46378;DHT22;32083;47.360;9.650;2023-01-09T09:19:13;7.00;99.90
46378;DHT22;32083;47.360;9.650;2023-01-09T09:21:39;7.00;99.70
46378;DHT22;32083;47.360;9.650;2023-01-09T09:24:05;7.10;99.90
46378;DHT22;32083;47.360;9.650;2023-01-09T09:26:31;7.00;99.90
46378;DHT22;32083;47.360;9.650;2023-01-09T09:28:57;7.00;99.20
46378;DHT22;32083;47.360;9.650;2023-01-09T09:31:24;7.00;97.60
46378;DHT22;32083;47.360;9.650;2023-01-09T09:33:49;7.10;97.40
46378;DHT22;32083;47.360;9.650;2023-01-09T09:36:15;7.20;97.60
46378;DHT22;32083;47.360;9.650;2023-01-09T09:38:42;7.30;98.60
46378;DHT22;32083;47.360;9.650;2023-01-09T09:41:14;7.30;98.80
46378;DHT22;32083;47.360;9.650;2023-01-09T09:53:16;7.50;97.40
46378;DHT22;32083;47.360;9.650;2023-01-09T09:55:45;7.50;97.70
46378;DHT22;32083;47.360;9.650;2023-01-09T09:58:36;7.50;98.80
46378;DHT22;32083;47.360;9.650;2023-01-09T10:01:04;7.60;99.50
46378;DHT22;32083;47.360;9.650;2023-01-09T10:03:54;7.60;99.90
46378;DHT22;32083;47.360;9.650;2023-01-09T10:06:33;7.50;99.20
46378;DHT22;32083;47.360;9.650;2023-01-09T10:14:44;7.60;99.80
46378;DHT22;32083;47.360;9.650;2023-01-09T10:36:37;7.70;99.90
46378;DHT22;32083;47.360;9.650;2023-01-09T10:39:25;7.80;99.90
46378;DHT22;32083;47.360;9.650;2023-01-09T10:42:13;7.80;99.90
46378;DHT22;32083;47.360;9.650;2023-01-09T10:45:14;7.90;99.90
46378;DHT22;32083;47.360;9.650;2023-01-09T10:47:43;7.90;99.90
46378;DHT22;32083;47.360;9.650;2023-01-09T10:50:34;7.90;99.90
46378;DHT22;32083;47.360;9.650;2023-01-09T10:53:20;7.90;99.90
46378;DHT22;32083;47.360;9.650;2023-01-09T10:55:47;8.00;99.90
46378;DHT22;32083;47.360;9.650;2023-01-09T10:58:20;7.90;99.90
46378;DHT22;32083;47.360;9.650;2023-01-09T11:00:48;8.00;99.90
46378;DHT22;32083;47.360;9.650;2023-01-09T11:03:20;8.00;99.90
46378;DHT22;32083;47.360;9.650;2023-01-09T11:05:57;8.00;99.60
46378;DHT22;32083;47.360;9.650;2023-01-09T11:08:41;7.90;99.90
46378;DHT22;32083;47.360;9.650;2023-01-09T11:11:09;8.00;99.90
46378;DHT22;32083;47.360;9.650;2023-01-09T11:13:37;8.00;99.90
46378;DHT22;32083;47.360;9.650;2023-01-09T11:16:20;8.00;99.90
46378;DHT22;32083;47.360;9.650;2023-01-09T11:18:55;8.10;99.90
46378;DHT22;32083;47.360;9.650;2023-01-09T11:23:55;8.10;99.90
46378;DHT22;32083;47.360;9.650;2023-01-09T11:26:26;8.10;99.90
46378;DHT22;32083;47.360;9.650;2023-01-09T11:29:10;8.10;99.90
46378;DHT22;32083;47.360;9.650;2023-01-09T11:31:36;8.10;99.80
46378;DHT22;32083;47.360;9.650;2023-01-09T11:34:03;8.20;99.90
46378;DHT22;32083;47.360;9.650;2023-01-09T11:36:29;8.20;99.90
46378;DHT22;32083;47.360;9.650;2023-01-09T11:38:57;8.20;99.80
46378;DHT22;32083;47.360;9.650;2023-01-09T11:41:26;8.30;99.90
46378;DHT22;32083;47.360;9.650;2023-01-09T11:43:56;8.40;99.90
46378;DHT22;32083;47.360;9.650;2023-01-09T11:48:58;8.50;99.90
46378;DHT22;32083;47.360;9.650;2023-01-09T11:51:33;8.50;99.10
46378;DHT22;32083;47.360;9.650;2023-01-09T11:54:19;8.40;99.20
46378;DHT22;32083;47.360;9.650;2023-01-09T11:56:47;8.50;99.90
46378;DHT22;32083;47.360;9.650;2023-01-09T11:59:19;8.50;99.90
46378;DHT22;32083;47.360;9.650;2023-01-09T12:05:04;8.40;99.90
46378;DHT22;32083;47.360;9.650;2023-01-09T12:07:45;8.30;99.90
46378;DHT22;32083;47.360;9.650;2023-01-09T12:22:34;8.50;99.90
46378;DHT22;32083;47.360;9.650;2023-01-09T12:31:02;8.50;99.90
46378;DHT22;32083;47.360;9.650;2023-01-09T12:38:45;8.50;99.90
46378;DHT22;32083;47.360;9.650;2023-01-09T12:44:00;8.50;99.90
46378;DHT22;32083;47.360;9.650;2023-01-09T12:46:45;8.50;99.90
46378;DHT22;32083;47.360;9.650;2023-01-09T12:50:05;8.40;99.90
46378;DHT22;32083;47.360;9.650;2023-01-09T12:52:24;8.40;99.90
46378;DHT22;32083;47.360;9.650;2023-01-09T12:57:45;8.40;99.90
46378;DHT22;32083;47.360;9.650;2023-01-09T13:00:17;8.40;99.90
46378;DHT22;32083;47.360;9.650;2023-01-09T13:05:33;8.40;99.90
46378;DHT22;32083;47.360;9.650;2023-01-09T13:08:04;8.40;99.90
46378;DHT22;32083;47.360;9.650;2023-01-09T13:10:37;8.40;99.90
46378;DHT22;32083;47.360;9.650;2023-01-09T13:13:16;8.40;99.90
46378;DHT22;32083;47.360;9.650;2023-01-09T13:15:46;8.40;99.90
46378;DHT22;32083;47.360;9.650;2023-01-09T13:18:33;8.40;99.90
46378;DHT22;32083;47.360;9.650;2023-01-09T13:21:00;8.40;99.90
46378;DHT22;32083;47.360;9.650;2023-01-09T13:26:24;8.50;99.90
46378;DHT22;32083;47.360;9.650;2023-01-09T13:29:13;8.50;99.30
46378;DHT22;32083;47.360;9.650;2023-01-09T13:34:22;8.40;98.90
46378;DHT22;32083;47.360;9.650;2023-01-09T13:36:52;8.40;99.90
46378;DHT22;32083;47.360;9.650;2023-01-09T13:39:27;8.30;99.50
46378;DHT22;32083;47.360;9.650;2023-01-09T13:42:01;8.30;99.90
46378;DHT22;32083;47.360;9.650;2023-01-09T13:44:54;8.30;99.90
46378;DHT22;32083;47.360;9.650;2023-01-09T13:47:23;8.30;99.80
46378;DHT22;32083;47.360;9.650;2023-01-09T13:50:19;8.30;99.30
46378;DHT22;32083;47.360;9.650;2023-01-09T13:52:46;8.20;99.00
46378;DHT22;32083;47.360;9.650;2023-01-09T14:05:15;8.10;99.00
46378;DHT22;32083;47.360;9.650;2023-01-09T14:07:45;8.00;99.10
46378;DHT22;32083;47.360;9.650;2023-01-09T14:10:30;8.00;99.90
46378;DHT22;32083;47.360;9.650;2023-01-09T14:12:59;7.80;99.90
46378;DHT22;32083;47.360;9.650;2023-01-09T14:15:41;7.70;99.90
46378;DHT22;32083;47.360;9.650;2023-01-09T14:18:27;7.60;99.90
46378;DHT22;32083;47.360;9.650;2023-01-09T14:20:58;7.60;99.90
46378;DHT22;32083;47.360;9.650;2023-01-09T14:25:55;7.70;99.90
46378;DHT22;32083;47.360;9.650;2023-01-09T14:28:26;7.70;99.90
46378;DHT22;32083;47.360;9.650;2023-01-09T14:36:19;7.80;99.90
46378;DHT22;32083;47.360;9.650;2023-01-09T14:41:45;7.80;99.90
46378;DHT22;32083;47.360;9.650;2023-01-09T14:44:52;7.70;99.90
46378;DHT22;32083;47.360;9.650;2023-01-09T14:47:44;7.60;99.90
46378;DHT22;32083;47.360;9.650;2023-01-09T14:50:21;7.50;99.90
46378;DHT22;32083;47.360;9.650;2023-01-09T14:53:38;7.50;99.90
46378;DHT22;32083;47.360;9.650;2023-01-09T14:56:02;7.30;99.90
46378;DHT22;32083;47.360;9.650;2023-01-09T14:58:32;7.40;99.90
46378;DHT22;32083;47.360;9.650;2023-01-09T15:01:03;7.20;99.90
46378;DHT22;32083;47.360;9.650;2023-01-09T15:03:46;7.30;99.90
46378;DHT22;32083;47.360;9.650;2023-01-09T15:06:22;7.40;99.90
46378;DHT22;32083;47.360;9.650;2023-01-09T15:08:54;7.40;99.90
46378;DHT22;32083;47.360;9.650;2023-01-09T15:11:23;7.40;99.90
46378;DHT22;32083;47.360;9.650;2023-01-09T15:13:50;7.40;99.90
46378;DHT22;32083;47.360;9.650;2023-01-09T15:16:21;7.30;99.90
46378;DHT22;32083;47.360;9.650;2023-01-09T15:18:58;7.30;99.90
46378;DHT22;32083;47.360;9.650;2023-01-09T15:21:28;7.30;99.90
46378;DHT22;32083;47.360;9.650;2023-01-09T15:24:22;7.20;99.90
46378;DHT22;32083;47.360;9.650;2023-01-09T15:26:58;7.20;99.90
46378;DHT22;32083;47.360;9.650;2023-01-09T15:29:29;7.10;99.90
46378;DHT22;32083;47.360;9.650;2023-01-09T15:32:21;6.90;99.90
46378;DHT22;32083;47.360;9.650;2023-01-09T15:34:51;6.80;99.90
46378;DHT22;32083;47.360;9.650;2023-01-09T15:37:33;6.70;99.90
46378;DHT22;32083;47.360;9.650;2023-01-09T15:40:02;6.70;99.90
46378;DHT22;32083;47.360;9.650;2023-01-09T15:42:35;6.60;99.90
46378;DHT22;32083;47.360;9.650;2023-01-09T15:45:30;6.60;99.90
46378;DHT22;32083;47.360;9.650;2023-01-09T15:48:24;6.70;99.90
46378;DHT22;32083;47.360;9.650;2023-01-09T15:51:15;6.60;99.90
46378;DHT22;32083;47.360;9.650;2023-01-09T15:53:45;6.50;99.90
46378;DHT22;32083;47.360;9.650;2023-01-09T15:56:22;6.70;99.90
46378;DHT22;32083;47.360;9.650;2023-01-09T15:59:14;6.80;99.90
46378;DHT22;32083;47.360;9.650;2023-01-09T16:04:26;6.90;99.90
46378;DHT22;32083;47.360;9.650;2023-01-09T16:32:47;7.10;99.90
46378;DHT22;32083;47.360;9.650;2023-01-09T16:35:23;7.10;99.90
46378;DHT22;32083;47.360;9.650;2023-01-09T16:38:00;7.10;99.60
46378;DHT22;32083;47.360;9.650;2023-01-09T17:03:48;6.80;99.90
46378;DHT22;32083;47.360;9.650;2023-01-09T17:06:28;6.80;99.90
46378;DHT22;32083;47.360;9.650;2023-01-09T17:08:55;6.70;99.90
46378;DHT22;32083;47.360;9.650;2023-01-09T17:11:24;6.70;99.90
46378;DHT22;32083;47.360;9.650;2023-01-09T17:13:59;6.70;99.90
46378;DHT22;32083;47.360;9.650;2023-01-09T17:16:25;6.70;99.90
46378;DHT22;32083;47.360;9.650;2023-01-09T17:18:52;6.70;99.90
46378;DHT22;32083;47.360;9.650;2023-01-09T17:21:41;6.60;99.90
46378;DHT22;32083;47.360;9.650;2023-01-09T17:24:11;6.60;99.90
46378;DHT22;32083;47.360;9.650;2023-01-09T17:26:56;6.60;99.90
46378;DHT22;32083;47.360;9.650;2023-01-09T17:29:41;6.60;99.90
46378;DHT22;32083;47.360;9.650;2023-01-09T17:32:12;6.50;99.90
46378;DHT22;32083;47.360;9.650;2023-01-09T17:34:39;6.50;99.90
46378;DHT22;32083;47.360;9.650;2023-01-09T17:37:05;6.50;99.90
46378;DHT22;32083;47.360;9.650;2023-01-09T17:39:32;6.40;99.90
46378;DHT22;32083;47.360;9.650;2023-01-09T17:41:57;6.40;99.90
46378;DHT22;32083;47.360;9.650;2023-01-09T17:44:26;6.40;99.90
46378;DHT22;32083;47.360;9.650;2023-01-09T17:46:52;6.40;99.90
46378;DHT22;32083;47.360;9.650;2023-01-09T17:49:20;6.40;99.90
46378;DHT22;32083;47.360;9.650;2023-01-09T17:51:46;6.30;99.90
46378;DHT22;32083;47.360;9.650;2023-01-09T17:54:13;6.30;99.90
46378;DHT22;32083;47.360;9.650;2023-01-09T17:56:43;6.30;99.90
46378;DHT22;32083;47.360;9.650;2023-01-09T17:59:12;6.30;99.90
46378;DHT22;32083;47.360;9.650;2023-01-09T18:01:39;6.30;99.90
46378;DHT22;32083;47.360;9.650;2023-01-09T18:04:05;6.30;99.90
46378;DHT22;32083;47.360;9.650;2023-01-09T18:06:31;6.30;99.90
46378;DHT22;32083;47.360;9.650;2023-01-09T18:08:57;6.30;99.90
46378;DHT22;32083;47.360;9.650;2023-01-09T18:11:23;6.30;99.90
46378;DHT22;32083;47.360;9.650;2023-01-09T18:13:51;6.30;99.90
46378;DHT22;32083;47.360;9.650;2023-01-09T18:16:24;6.30;99.90
46378;DHT22;32083;47.360;9.650;2023-01-09T18:18:51;6.30;99.90
46378;DHT22;32083;47.360;9.650;2023-01-09T18:21:19;6.30;99.90
46378;DHT22;32083;47.360;9.650;2023-01-09T18:23:46;6.30;99.90
46378;DHT22;32083;47.360;9.650;2023-01-09T18:26:12;6.30;99.90
46378;DHT22;32083;47.360;9.650;2023-01-09T18:28:46;6.30;99.90
46378;DHT22;32083;47.360;9.650;2023-01-09T18:31:13;6.30;99.90
46378;DHT22;32083;47.360;9.650;2023-01-09T18:33:43;6.30;99.90
46378;DHT22;32083;47.360;9.650;2023-01-09T18:36:10;6.30;99.90
46378;DHT22;32083;47.360;9.650;2023-01-09T18:38:36;6.30;99.90
46378;DHT22;32083;47.360;9.650;2023-01-09T18:41:03;6.30;99.90
46378;DHT22;32083;47.360;9.650;2023-01-09T18:43:29;6.30;99.90
46378;DHT22;32083;47.360;9.650;2023-01-09T18:45:55;6.20;99.90
46378;DHT22;32083;47.360;9.650;2023-01-09T18:48:22;6.20;99.90
46378;DHT22;32083;47.360;9.650;2023-01-09T18:50:48;6.20;99.90
46378;DHT22;32083;47.360;9.650;2023-01-09T18:53:14;6.20;99.90
46378;DHT22;32083;47.360;9.650;2023-01-09T18:55:40;6.20;99.90
46378;DHT22;32083;47.360;9.650;2023-01-09T18:58:07;6.20;99.90
46378;DHT22;32083;47.360;9.650;2023-01-09T19:00:33;6.20;99.90
46378;DHT22;32083;47.360;9.650;2023-01-09T19:02:59;6.20;99.90
46378;DHT22;32083;47.360;9.650;2023-01-09T19:05:25;6.20;99.90
46378;DHT22;32083;47.360;9.650;2023-01-09T19:07:52;6.10;99.90
46378;DHT22;32083;47.360;9.650;2023-01-09T19:10:18;6.00;99.90
46378;DHT22;32083;47.360;9.650;2023-01-09T19:12:44;6.10;99.90
46378;DHT22;32083;47.360;9.650;2023-01-09T19:15:10;6.10;99.90
46378;DHT22;32083;47.360;9.650;2023-01-09T19:17:38;6.10;99.90
46378;DHT22;32083;47.360;9.650;2023-01-09T19:20:05;6.10;99.90
46378;DHT22;32083;47.360;9.650;2023-01-09T19:22:31;6.10;99.90
46378;DHT22;32083;47.360;9.650;2023-01-09T19:24:58;6.10;99.90
46378;DHT22;32083;47.360;9.650;2023-01-09T19:27:24;6.00;99.90
46378;DHT22;32083;47.360;9.650;2023-01-09T19:29:52;6.10;99.90
46378;DHT22;32083;47.360;9.650;2023-01-09T19:32:18;6.00;99.90
46378;DHT22;32083;47.360;9.650;2023-01-09T19:34:44;6.10;99.90
46378;DHT22;32083;47.360;9.650;2023-01-09T19:37:10;6.10;99.90
46378;DHT22;32083;47.360;9.650;2023-01-09T19:39:36;6.20;99.90
46378;DHT22;32083;47.360;9.650;2023-01-09T19:42:02;6.20;99.90
46378;DHT22;32083;47.360;9.650;2023-01-09T19:44:28;6.20;99.90
46378;DHT22;32083;47.360;9.650;2023-01-09T19:46:57;6.10;99.90
46378;DHT22;32083;47.360;9.650;2023-01-09T19:49:26;6.20;99.90
46378;DHT22;32083;47.360;9.650;2023-01-09T19:51:52;6.10;99.90
46378;DHT22;32083;47.360;9.650;2023-01-09T19:54:20;6.20;99.90
46378;DHT22;32083;47.360;9.650;2023-01-09T19:56:46;6.10;99.90
46378;DHT22;32083;47.360;9.650;2023-01-09T19:59:12;6.20;99.90
46378;DHT22;32083;47.360;9.650;2023-01-09T20:01:39;6.20;99.90
46378;DHT22;32083;47.360;9.650;2023-01-09T20:04:11;6.20;99.90
46378;DHT22;32083;47.360;9.650;2023-01-09T20:06:44;6.10;99.90
46378;DHT22;32083;47.360;9.650;2023-01-09T20:09:15;6.10;99.90
46378;DHT22;32083;47.360;9.650;2023-01-09T20:11:42;6.10;99.90
46378;DHT22;32083;47.360;9.650;2023-01-09T20:14:16;6.10;99.90
46378;DHT22;32083;47.360;9.650;2023-01-09T20:16:44;6.10;99.90
46378;DHT22;32083;47.360;9.650;2023-01-09T20:19:13;6.10;99.90
46378;DHT22;32083;47.360;9.650;2023-01-09T20:21:40;6.10;99.90
46378;DHT22;32083;47.360;9.650;2023-01-09T20:24:09;6.10;99.90
46378;DHT22;32083;47.360;9.650;2023-01-09T20:26:36;6.20;99.90
46378;DHT22;32083;47.360;9.650;2023-01-09T20:29:05;6.20;99.90
46378;DHT22;32083;47.360;9.650;2023-01-09T20:31:33;6.20;99.90
46378;DHT22;32083;47.360;9.650;2023-01-09T20:34:00;6.20;99.90
46378;DHT22;32083;47.360;9.650;2023-01-09T20:36:27;6.10;99.90
46378;DHT22;32083;47.360;9.650;2023-01-09T20:39:04;6.00;99.90
46378;DHT22;32083;47.360;9.650;2023-01-09T20:41:30;6.00;99.90
46378;DHT22;32083;47.360;9.650;2023-01-09T20:43:59;6.00;99.90
46378;DHT22;32083;47.360;9.650;2023-01-09T20:46:31;6.00;99.90
46378;DHT22;32083;47.360;9.650;2023-01-09T20:49:04;6.00;99.90
46378;DHT22;32083;47.360;9.650;2023-01-09T20:51:39;6.00;99.90
46378;DHT22;32083;47.360;9.650;2023-01-09T20:54:08;6.00;99.90
46378;DHT22;32083;47.360;9.650;2023-01-09T20:56:34;6.00;99.90
46378;DHT22;32083;47.360;9.650;2023-01-09T20:59:11;6.00;99.90
46378;DHT22;32083;47.360;9.650;2023-01-09T21:01:37;6.00;99.90
46378;DHT22;32083;47.360;9.650;2023-01-09T21:04:05;6.00;99.90
46378;DHT22;32083;47.360;9.650;2023-01-09T21:06:36;5.90;99.90
46378;DHT22;32083;47.360;9.650;2023-01-09T21:09:03;5.90;99.90
46378;DHT22;32083;47.360;9.650;2023-01-09T21:11:30;5.90;99.90
46378;DHT22;32083;47.360;9.650;2023-01-09T21:13:56;5.90;99.90
46378;DHT22;32083;47.360;9.650;2023-01-09T21:16:25;5.80;99.90
46378;DHT22;32083;47.360;9.650;2023-01-09T21:18:53;5.80;99.90
46378;DHT22;32083;47.360;9.650;2023-01-09T21:21:22;5.80;99.90
46378;DHT22;32083;47.360;9.650;2023-01-09T21:23:53;5.80;99.90
46378;DHT22;32083;47.360;9.650;2023-01-09T21:26:22;5.80;99.90
46378;DHT22;32083;47.360;9.650;2023-01-09T21:28:50;5.80;99.90
46378;DHT22;32083;47.360;9.650;2023-01-09T21:31:21;5.80;99.90
46378;DHT22;32083;47.360;9.650;2023-01-09T21:33:50;5.70;99.90
46378;DHT22;32083;47.360;9.650;2023-01-09T21:36:19;5.70;99.90
46378;DHT22;32083;47.360;9.650;2023-01-09T21:38:45;5.80;99.90
46378;DHT22;32083;47.360;9.650;2023-01-09T21:41:13;5.80;99.90
46378;DHT22;32083;47.360;9.650;2023-01-09T21:43:59;5.80;99.90
46378;DHT22;32083;47.360;9.650;2023-01-09T21:46:44;5.80;99.90
46378;DHT22;32083;47.360;9.650;2023-01-09T21:49:16;5.80;99.90
46378;DHT22;32083;47.360;9.650;2023-01-09T21:51:43;5.80;99.90